createdAt,value
2023-12-05T00:03:53.781Z,67.25
2023-12-05T00:08:57.449Z,62.45
2023-12-05T00:14:00.316Z,56.41
2023-12-05T00:19:03.276Z,60.34
2023-12-05T00:24:06.463Z,66.61
2023-12-05T00:29:09.950Z,63.36
2023-12-05T00:34:12.881Z,56.94
2023-12-05T00:39:15.930Z,58.92
2023-12-05T00:44:18.799Z,65.86
2023-12-05T00:49:21.703Z,63.26
2023-12-05T00:54:24.678Z,57.11
2023-12-05T00:59:27.532Z,58.89
2023-12-05T01:04:30.524Z,65.97
2023-12-05T01:09:35.667Z,63.64
2023-12-05T01:14:38.772Z,57.25
2023-12-05T01:19:41.648Z,60.16
2023-12-05T01:24:44.638Z,66.82
2023-12-05T01:29:47.604Z,63.24
2023-12-05T01:34:50.570Z,57.29
2023-12-05T01:39:53.962Z,60.33
2023-12-05T01:44:56.941Z,67.08
2023-12-05T01:50:00.652Z,61.91
2023-12-05T01:55:03.890Z,56.93
2023-12-05T02:00:08.846Z,60.28
2023-12-05T02:05:12.549Z,67.28
2023-12-05T02:10:15.563Z,63.42
2023-12-05T02:15:19.356Z,57.67
2023-12-05T02:21:00.716Z,58.31
2023-12-05T02:26:30.802Z,63.90
2023-12-05T02:31:33.827Z,66.27
2023-12-05T02:37:00.954Z,59.23
2023-12-05T02:42:10.128Z,56.88
2023-12-05T02:47:15.928Z,62.26
2023-12-05T02:52:18.820Z,67.26
2023-12-05T02:57:21.692Z,61.70
2023-12-05T03:02:24.603Z,56.38
2023-12-05T03:07:28.938Z,59.88
2023-12-05T03:12:35.358Z,66.50
2023-12-05T03:17:38.589Z,63.75
2023-12-05T03:22:41.949Z,57.95
2023-12-05T03:27:47.420Z,58.60
2023-12-05T03:32:50.298Z,65.79
2023-12-05T03:37:53.163Z,63.06
2023-12-05T03:42:56.064Z,57.17
2023-12-05T03:47:59.204Z,59.66
2023-12-05T03:53:02.116Z,66.92
2023-12-05T03:58:05.447Z,63.61
2023-12-05T04:03:08.381Z,57.21
2023-12-05T04:08:11.389Z,60.05
2023-12-05T04:13:15.410Z,67.00
2023-12-05T04:18:18.585Z,63.37
2023-12-05T04:23:21.498Z,56.65
2023-12-05T04:28:24.497Z,58.35
2023-12-05T04:33:28.757Z,61.63
2023-12-05T04:38:34.031Z,69.27
2023-12-05T04:43:37.463Z,64.98
2023-12-05T04:48:40.397Z,56.39
2023-12-05T04:53:43.270Z,58.07
2023-12-05T04:58:46.123Z,61.17
2023-12-05T05:03:49.042Z,66.46
2023-12-05T05:08:53.905Z,64.79
2023-12-05T05:13:58.894Z,57.30
2023-12-05T05:19:02.785Z,52.77
2023-12-05T05:24:06.347Z,49.01
2023-12-05T05:29:09.916Z,46.04
2023-12-05T05:34:13.934Z,44.30
2023-12-05T05:39:16.989Z,43.51
2023-12-05T05:44:19.906Z,42.45
2023-12-05T05:49:23.070Z,42.17
2023-12-05T05:54:26.042Z,41.82
2023-12-05T05:59:30.235Z,42.26
2023-12-05T06:04:33.886Z,42.50
2023-12-05T06:09:38.120Z,42.60
2023-12-05T06:14:41.061Z,43.17
2023-12-05T06:19:44.022Z,43.33
2023-12-05T06:24:47.396Z,43.31
2023-12-05T06:29:50.694Z,42.96
2023-12-05T06:34:53.596Z,42.46
2023-12-05T06:39:58.219Z,42.09
2023-12-05T06:45:01.779Z,42.08
2023-12-05T06:50:12.885Z,41.87
2023-12-05T06:55:16.433Z,41.84
2023-12-05T07:00:21.000Z,42.10
2023-12-05T07:05:24.648Z,42.17
2023-12-05T07:10:28.753Z,42.31
2023-12-05T07:15:32.589Z,42.64
2023-12-05T07:20:35.924Z,43.25
2023-12-05T07:25:38.859Z,44.54
2023-12-05T07:30:41.723Z,42.96
2023-12-05T07:35:46.196Z,42.12
2023-12-05T07:40:51.018Z,41.63
2023-12-05T07:45:54.730Z,41.41
2023-12-05T07:50:59.231Z,40.90
2023-12-05T07:56:02.404Z,41.42
2023-12-05T08:01:07.146Z,41.13
2023-12-05T08:06:10.554Z,38.41
2023-12-05T08:11:13.471Z,42.89
2023-12-05T08:16:20.515Z,47.24
2023-12-05T08:21:26.457Z,50.31
2023-12-05T08:26:35.000Z,55.09
2023-12-05T08:31:41.123Z,56.35
2023-12-05T08:36:47.851Z,56.94
2023-12-05T08:41:52.802Z,57.55
2023-12-05T08:46:56.439Z,58.80
2023-12-05T08:52:00.827Z,65.35
2023-12-05T08:57:04.523Z,60.39
2023-12-05T09:02:07.521Z,54.44
2023-12-05T09:07:10.619Z,58.17
2023-12-05T09:12:13.979Z,64.23
2023-12-05T09:17:17.644Z,60.77
2023-12-05T09:22:22.334Z,54.93
2023-12-05T09:27:25.772Z,58.66
2023-12-05T09:32:28.863Z,64.45
2023-12-05T09:37:32.312Z,61.92
2023-12-05T09:42:36.511Z,55.64
2023-12-05T09:47:43.277Z,59.57
2023-12-05T09:52:46.852Z,65.46
2023-12-05T09:57:52.528Z,62.23
2023-12-05T10:02:58.476Z,55.49
2023-12-05T10:08:02.974Z,59.13
2023-12-05T10:13:07.183Z,61.42
2023-12-05T10:18:11.048Z,67.50
2023-12-05T10:23:14.378Z,61.67
2023-12-05T10:28:18.528Z,55.50
2023-12-05T10:33:31.580Z,59.19
2023-12-05T10:38:42.570Z,65.02
2023-12-05T10:43:50.589Z,60.48
2023-12-05T10:48:56.182Z,55.13
2023-12-05T10:54:01.068Z,60.36
2023-12-05T10:59:05.741Z,64.74
2023-12-05T11:04:09.276Z,57.30
2023-12-05T11:09:13.782Z,56.03
2023-12-05T11:14:18.757Z,60.66
2023-12-05T11:19:40.951Z,64.83
2023-12-05T11:25:04.595Z,59.38
2023-12-05T11:30:29.734Z,55.73
2023-12-05T11:35:43.454Z,59.06
2023-12-05T11:41:18.724Z,63.54
2023-12-05T11:46:22.518Z,64.36
2023-12-05T11:51:31.527Z,55.73
2023-12-05T11:56:39.597Z,56.19
2023-12-05T12:01:43.957Z,61.37
2023-12-05T12:06:51.718Z,63.09
2023-12-05T12:11:56.592Z,57.44
2023-12-05T12:17:08.065Z,58.41
2023-12-05T12:22:22.036Z,64.32
2023-12-05T12:27:41.206Z,56.14
2023-12-05T12:33:08.969Z,55.54
2023-12-05T12:38:12.525Z,60.48
2023-12-05T12:43:15.839Z,65.34
2023-12-05T12:48:18.817Z,59.39
2023-12-05T12:53:24.484Z,57.91
2023-12-05T12:58:35.771Z,63.17
2023-12-05T13:03:39.243Z,63.16
2023-12-05T13:08:42.998Z,57.56
2023-12-05T13:13:46.769Z,57.80
2023-12-05T13:18:49.889Z,63.52
2023-12-05T13:23:56.164Z,61.15
2023-12-05T13:28:59.653Z,57.14
2023-12-05T13:34:03.179Z,63.62
2023-12-05T13:39:11.718Z,62.82
2023-12-05T13:44:20.566Z,59.46
2023-12-05T13:49:24.280Z,63.47
2023-12-05T13:54:27.438Z,61.64
2023-12-05T13:59:34.549Z,58.08
2023-12-05T14:04:37.862Z,62.57
2023-12-05T14:09:41.066Z,63.87
2023-12-05T14:14:44.217Z,58.25
2023-12-05T14:19:49.003Z,60.94
2023-12-05T14:24:51.983Z,65.14
2023-12-05T14:29:55.060Z,60.12
2023-12-05T14:34:59.195Z,59.88
2023-12-05T14:40:02.648Z,63.88
2023-12-05T14:45:07.993Z,61.24
2023-12-05T14:50:13.685Z,58.68
2023-12-05T14:55:18.533Z,64.09
2023-12-05T15:00:21.794Z,61.10
2023-12-05T15:05:25.483Z,58.43
2023-12-05T15:10:28.544Z,63.22
2023-12-05T15:15:32.715Z,62.23
2023-12-05T15:20:37.065Z,57.54
2023-12-05T15:25:40.992Z,58.00
2023-12-05T15:30:43.988Z,61.10
2023-12-05T15:35:48.428Z,66.74
2023-12-05T15:40:51.473Z,60.39
2023-12-05T15:45:54.447Z,56.34
2023-12-05T15:50:59.286Z,60.27
2023-12-05T15:56:02.243Z,66.57
2023-12-05T16:01:06.497Z,63.05
2023-12-05T16:06:12.586Z,56.57
2023-12-05T16:11:16.750Z,60.57
2023-12-05T16:16:19.631Z,64.91
2023-12-05T16:21:22.812Z,59.29
2023-12-05T16:26:27.757Z,55.83
2023-12-05T16:31:31.312Z,59.55
2023-12-05T16:36:37.695Z,62.58
2023-12-05T16:41:40.960Z,67.49
2023-12-05T16:46:45.023Z,60.97
2023-12-05T16:51:47.947Z,55.28
2023-12-05T16:56:51.922Z,58.43
2023-12-05T17:01:54.885Z,61.20
2023-12-05T17:06:59.744Z,67.31
2023-12-05T17:12:02.977Z,65.17
2023-12-05T17:17:07.633Z,57.59
2023-12-05T17:22:12.430Z,56.74
2023-12-05T17:27:19.581Z,60.62
2023-12-05T17:32:27.698Z,67.80
2023-12-05T17:37:33.501Z,62.44
2023-12-05T17:42:36.480Z,55.94
2023-12-05T17:47:39.482Z,58.61
2023-12-05T17:52:45.704Z,66.38
2023-12-05T17:57:49.285Z,63.22
2023-12-05T18:02:52.446Z,56.40
2023-12-05T18:07:58.522Z,58.35
2023-12-05T18:13:04.124Z,61.31
2023-12-05T18:18:12.207Z,68.34
2023-12-05T18:23:15.311Z,64.50
2023-12-05T18:28:18.202Z,56.49
2023-12-05T18:33:21.881Z,58.98
2023-12-05T18:38:29.110Z,66.19
2023-12-05T18:43:34.029Z,61.51
2023-12-05T18:48:38.505Z,56.68
2023-12-05T18:53:44.238Z,62.65
2023-12-05T18:58:47.883Z,65.46
2023-12-05T19:03:51.505Z,57.74
2023-12-05T19:08:55.872Z,57.53
2023-12-05T19:13:59.347Z,63.19
2023-12-05T19:19:02.856Z,66.63
2023-12-05T19:24:05.911Z,58.21
2023-12-05T19:29:08.830Z,57.71
2023-12-05T19:34:11.782Z,64.92
2023-12-05T19:39:14.798Z,62.78
2023-12-05T19:44:18.072Z,56.28
2023-12-05T19:49:21.006Z,59.97
2023-12-05T19:54:27.176Z,67.62
2023-12-05T19:59:31.912Z,62.33
2023-12-05T20:04:35.716Z,56.30
2023-12-05T20:09:39.871Z,60.82
2023-12-05T20:14:42.855Z,68.49
2023-12-05T20:19:46.598Z,62.40
2023-12-05T20:24:49.605Z,56.31
2023-12-05T20:29:57.093Z,59.88
2023-12-05T20:35:00.449Z,67.61
2023-12-05T20:40:04.382Z,63.83
2023-12-05T20:45:07.756Z,57.23
2023-12-05T20:50:11.037Z,57.19
2023-12-05T20:55:14.100Z,63.94
2023-12-05T21:00:17.278Z,65.92
2023-12-05T21:05:23.180Z,58.89
2023-12-05T21:10:26.978Z,57.96
2023-12-05T21:15:29.810Z,63.01
2023-12-05T21:20:32.673Z,66.46
2023-12-05T21:25:35.533Z,59.90
2023-12-05T21:30:39.367Z,56.48
2023-12-05T21:35:42.265Z,60.33
2023-12-05T21:40:45.169Z,67.93
2023-12-05T21:45:48.489Z,64.17
2023-12-05T21:50:51.428Z,57.26
2023-12-05T21:55:55.208Z,59.23
2023-12-05T22:00:58.094Z,61.51
2023-12-05T22:06:01.167Z,70.15
2023-12-05T22:11:06.336Z,64.28
2023-12-05T22:16:09.704Z,56.51
2023-12-05T22:21:12.702Z,58.68
2023-12-05T22:26:17.438Z,64.38
2023-12-05T22:31:24.965Z,66.66
2023-12-05T22:36:27.868Z,58.07
2023-12-05T22:41:31.161Z,56.52
2023-12-05T22:46:34.399Z,59.97
2023-12-05T22:51:41.209Z,67.39
2023-12-05T22:56:44.511Z,66.29
2023-12-05T23:01:47.818Z,58.15
2023-12-05T23:06:50.778Z,56.93
2023-12-05T23:11:54.998Z,60.32
2023-12-05T23:16:57.831Z,67.37
2023-12-05T23:22:10.134Z,64.12
2023-12-05T23:27:13.698Z,56.47
2023-12-05T23:32:16.586Z,57.22
2023-12-05T23:37:20.138Z,64.94
2023-12-05T23:42:23.299Z,62.21
2023-12-05T23:47:26.488Z,55.66
2023-12-05T23:52:29.626Z,60.61
2023-12-05T23:57:33.018Z,66.40
